createdAt,value
2019-04-23T00:00:26.703Z,141.47
2019-04-23T00:05:41.909Z,141.35
2019-04-23T00:08:17.516Z,143.40
2019-04-23T00:13:12.448Z,140.97
2019-04-23T00:15:49.576Z,139.80
2019-04-23T00:18:12.467Z,140.40
2019-04-23T00:20:43.141Z,140.55
2019-04-23T00:23:10.676Z,140.40
2019-04-23T00:26:02.043Z,143.37
2019-04-23T00:28:35.925Z,140.43
2019-04-23T00:31:06.319Z,140.50
2019-04-23T00:33:32.737Z,141.55
2019-04-23T00:35:55.149Z,140.80
2019-04-23T00:38:36.558Z,140.52
2019-04-23T00:40:58.232Z,140.55
2019-04-23T00:43:28.899Z,141.43
2019-04-23T00:48:45.413Z,142.70
2019-04-23T00:53:23.507Z,141.12
2019-04-23T00:56:03.882Z,141.90
2019-04-23T00:58:31.908Z,140.80
2019-04-23T01:00:54.022Z,140.88
2019-04-23T01:03:17.480Z,143.75
2019-04-23T01:05:48.890Z,141.12
2019-04-23T01:08:18.496Z,141.22
2019-04-23T01:11:03.289Z,140.55
2019-04-23T01:13:36.306Z,141.10
2019-04-23T01:18:49.129Z,141.43
2019-04-23T01:20:54.162Z,142.75
2019-04-23T01:23:42.612Z,140.75
2019-04-23T01:26:26.803Z,141.70
2019-04-23T01:29:01.403Z,140.62
2019-04-23T01:31:29.335Z,140.97
2019-04-23T01:33:59.434Z,140.62
2019-04-23T01:36:25.272Z,141.10
2019-04-23T01:39:00.406Z,141.15
2019-04-23T01:41:31.187Z,140.28
2019-04-23T01:43:50.327Z,141.68
2019-04-23T01:46:28.940Z,141.60
2019-04-23T01:48:52.068Z,141.32
2019-04-23T01:51:27.804Z,141.85
2019-04-23T01:53:50.042Z,141.28
2019-04-23T01:58:51.857Z,141.25
2019-04-23T02:01:20.806Z,141.50
2019-04-23T02:08:47.088Z,142.68
2019-04-23T02:11:14.086Z,141.95
2019-04-23T02:13:51.574Z,142.37
2019-04-23T02:16:10.578Z,142.87
2019-04-23T02:18:41.654Z,141.37
2019-04-23T02:21:15.447Z,141.32
2019-04-23T02:23:54.763Z,141.12
2019-04-23T02:26:38.476Z,141.55
2019-04-23T02:31:45.114Z,141.35
2019-04-23T02:34:00.488Z,141.80
2019-04-23T02:36:26.392Z,143.55
2019-04-23T02:38:58.123Z,143.25
2019-04-23T02:41:26.731Z,143.00
2019-04-23T02:43:59.118Z,143.28
2019-04-23T02:46:31.790Z,142.30
2019-04-23T02:51:29.038Z,144.65
2019-04-23T02:56:33.046Z,143.05
2019-04-23T02:58:54.490Z,141.75
2019-04-23T03:06:14.841Z,141.07
2019-04-23T03:08:46.278Z,141.25
2019-04-23T03:11:24.980Z,140.77
2019-04-23T03:14:00.304Z,140.80
2019-04-23T03:19:31.976Z,140.65
2019-04-23T03:22:09.906Z,140.32
2019-04-23T03:25:21.327Z,142.32
2019-04-23T03:30:16.339Z,140.43
2019-04-23T03:33:08.299Z,140.55
2019-04-23T03:47:37.286Z,140.62
2019-04-23T04:05:03.481Z,141.35
2019-04-23T04:07:43.839Z,141.77
2019-04-23T04:09:59.630Z,141.97
2019-04-23T04:15:04.288Z,141.37
2019-04-23T04:25:21.318Z,140.43
2019-04-23T04:27:38.424Z,141.25
2019-04-23T04:30:01.167Z,140.55
2019-04-23T04:32:33.427Z,143.00
2019-04-23T04:42:14.833Z,143.45
2019-04-23T04:45:07.472Z,143.30
2019-04-23T04:47:28.045Z,141.90
2019-04-23T04:49:55.778Z,141.95
2019-04-23T04:52:34.898Z,142.93
2019-04-23T04:55:00.123Z,142.28
2019-04-23T05:00:06.735Z,144.20
2019-04-23T05:02:28.336Z,143.55
2019-04-23T05:07:20.137Z,141.32
2019-04-23T05:10:01.701Z,142.43
2019-04-23T05:14:52.743Z,143.90
2019-04-23T05:17:32.350Z,145.12
2019-04-23T05:19:57.460Z,142.13
2019-04-23T05:22:22.579Z,142.87
2019-04-23T05:24:45.239Z,142.87
2019-04-23T05:27:21.800Z,142.87
2019-04-23T05:29:54.332Z,143.45
2019-04-23T05:32:25.128Z,143.30
2019-04-23T05:34:50.437Z,142.87
2019-04-23T05:37:25.403Z,142.28
2019-04-23T05:39:49.884Z,142.95
2019-04-23T05:42:19.773Z,142.25
2019-04-23T05:44:43.299Z,142.30
2019-04-23T05:47:17.439Z,143.25
2019-04-23T05:49:47.444Z,142.95
2019-04-23T05:52:17.911Z,142.00
2019-04-23T05:54:44.700Z,142.22
2019-04-23T05:57:06.635Z,142.25
2019-04-23T05:59:34.244Z,145.30
2019-04-23T06:02:07.598Z,146.43
2019-04-23T06:04:38.249Z,142.47
2019-04-23T06:07:25.030Z,145.00
2019-04-23T06:09:33.575Z,144.30
2019-04-23T06:12:16.887Z,144.75
2019-04-23T06:14:32.743Z,143.02
2019-04-23T06:17:15.929Z,144.00
2019-04-23T06:19:48.332Z,142.13
2019-04-23T06:22:25.269Z,145.25
2019-04-23T06:24:45.042Z,144.10
2019-04-23T06:27:22.054Z,144.10
2019-04-23T06:29:43.222Z,143.80
2019-04-23T06:32:15.929Z,142.43
2019-04-23T06:34:50.211Z,143.22
2019-04-23T06:37:24.720Z,144.00
2019-04-23T06:42:14.580Z,143.90
2019-04-23T06:44:51.776Z,144.87
2019-04-23T06:47:12.934Z,144.72
2019-04-23T06:52:20.601Z,146.18
2019-04-23T06:54:47.670Z,147.15
2019-04-23T06:57:20.761Z,146.40
2019-04-23T06:59:47.100Z,147.13
2019-04-23T07:02:22.271Z,145.65
2019-04-23T07:07:41.029Z,146.65
2019-04-23T07:09:43.884Z,146.40
2019-04-23T07:12:16.624Z,146.62
2019-04-23T07:17:08.880Z,146.20
2019-04-23T07:19:42.478Z,145.90
2019-04-23T07:25:03.262Z,145.35
2019-04-23T07:27:14.879Z,145.28
2019-04-23T07:29:40.475Z,146.47
2019-04-23T07:32:11.950Z,145.28
2019-04-23T07:34:49.518Z,144.40
2019-04-23T07:37:15.477Z,145.95
2019-04-23T07:40:24.445Z,146.20
2019-04-23T07:42:38.779Z,146.40
2019-04-23T07:48:10.960Z,146.35
2019-04-23T07:50:51.123Z,147.22
2019-04-23T07:53:12.896Z,148.30
2019-04-23T07:58:14.308Z,145.53
2019-04-23T08:03:19.076Z,145.40
2019-04-23T08:05:42.452Z,146.53
2019-04-23T08:08:07.291Z,148.68
2019-04-23T08:10:35.718Z,147.10
2019-04-23T08:13:16.123Z,148.55
2019-04-23T08:15:42.977Z,146.15
2019-04-23T08:18:13.648Z,147.53
2019-04-23T08:20:42.214Z,148.97
2019-04-23T08:23:40.464Z,145.77
2019-04-23T08:29:06.480Z,148.93
2019-04-23T08:31:32.048Z,148.10
2019-04-23T08:34:09.169Z,148.07
2019-04-23T08:36:34.242Z,148.05
2019-04-23T08:38:57.043Z,148.00
2019-04-23T08:41:44.624Z,148.22
2019-04-23T08:44:09.172Z,149.25
2019-04-23T08:46:56.836Z,148.15
2019-04-23T08:49:41.988Z,148.93
2019-04-23T08:57:14.449Z,149.40
2019-04-23T08:59:38.841Z,150.18
2019-04-23T09:02:18.174Z,148.62
2019-04-23T09:04:31.230Z,148.93
2019-04-23T09:07:09.624Z,148.93
2019-04-23T09:12:07.017Z,149.07
2019-04-23T09:14:38.619Z,149.75
2019-04-23T09:17:11.149Z,152.97
2019-04-23T09:20:03.689Z,152.80
2019-04-23T09:22:14.572Z,152.10
2019-04-23T09:24:41.525Z,152.60
2019-04-23T09:27:18.036Z,154.42
2019-04-23T09:29:45.781Z,151.47
2019-04-23T09:35:20.982Z,150.57
2019-04-23T09:38:21.804Z,152.62
2019-04-23T09:41:06.942Z,150.20
2019-04-23T09:43:38.200Z,150.57
2019-04-23T09:46:36.008Z,150.62
2019-04-23T09:49:18.801Z,151.05
2019-04-23T09:51:38.551Z,150.78
2019-04-23T09:54:09.556Z,152.90
2019-04-23T09:56:44.624Z,152.53
2019-04-23T09:59:17.677Z,151.47
2019-04-23T10:01:40.928Z,153.70
2019-04-23T10:04:00.113Z,151.47
2019-04-23T10:06:23.308Z,151.90
2019-04-23T10:08:53.824Z,151.75
2019-04-23T10:11:18.179Z,151.53
2019-04-23T10:13:46.397Z,153.10
2019-04-23T10:16:17.154Z,152.60
2019-04-23T10:18:44.883Z,152.12
2019-04-23T10:21:13.119Z,152.72
2019-04-23T10:23:41.221Z,152.15
2019-04-23T10:26:09.981Z,152.38
2019-04-23T10:28:42.214Z,153.15
2019-04-23T10:31:12.733Z,151.00
2019-04-23T10:33:46.116Z,154.00
2019-04-23T10:36:19.059Z,152.25
2019-04-23T10:38:54.036Z,156.20
2019-04-23T10:41:22.320Z,154.70
2019-04-23T10:44:05.035Z,153.97
2019-04-23T10:47:12.203Z,153.87
2019-04-23T10:50:07.398Z,152.27
2019-04-23T10:52:32.110Z,153.80
2019-04-23T10:55:06.764Z,155.82
2019-04-23T10:57:31.206Z,155.55
2019-04-23T10:59:58.553Z,159.27
2019-04-23T11:02:51.760Z,156.60
2019-04-23T11:05:29.053Z,154.38
2019-04-23T11:08:02.300Z,155.80
2019-04-23T11:10:32.862Z,159.60
2019-04-23T11:13:21.616Z,153.80
2019-04-23T11:16:27.433Z,154.57
2019-04-23T11:18:02.860Z,153.40
2019-04-23T11:20:43.791Z,153.23
2019-04-23T11:23:04.860Z,155.65
2019-04-23T11:28:17.987Z,153.20
2019-04-23T11:31:04.445Z,153.25
2019-04-23T11:33:22.079Z,152.20
2019-04-23T11:36:04.184Z,153.35
2019-04-23T11:38:48.617Z,156.93
2019-04-23T11:40:41.960Z,155.22
2019-04-23T11:43:20.305Z,154.72
2019-04-23T11:51:26.301Z,157.05
2019-04-23T11:53:36.997Z,159.35
2019-04-23T11:56:09.004Z,159.93
2019-04-23T12:04:24.804Z,158.35
2019-04-23T12:07:06.230Z,156.82
2019-04-23T12:09:41.554Z,159.07
2019-04-23T12:12:02.356Z,159.45
2019-04-23T12:15:11.709Z,160.07
2019-04-23T12:22:28.456Z,156.15
2019-04-23T12:27:27.578Z,158.07
2019-04-23T12:29:52.745Z,160.63
2019-04-23T12:35:35.203Z,159.30
2019-04-23T12:38:06.976Z,160.07
2019-04-23T12:43:12.718Z,161.18
2019-04-23T12:53:20.602Z,157.90
2019-04-23T12:56:04.546Z,158.12
2019-04-23T12:58:33.939Z,157.10
2019-04-23T13:00:58.443Z,158.75
2019-04-23T13:05:47.738Z,158.60
2019-04-23T13:08:36.126Z,160.67
2019-04-23T13:10:52.798Z,157.45
2019-04-23T13:15:53.248Z,159.75
2019-04-23T13:18:26.820Z,160.12
2019-04-23T13:20:47.939Z,157.60
2019-04-23T13:23:22.131Z,155.70
2019-04-23T13:28:30.976Z,155.15
2019-04-23T13:30:59.075Z,156.97
2019-04-23T13:33:35.252Z,156.85
2019-04-23T13:36:01.686Z,157.30
2019-04-23T13:38:32.133Z,156.07
2019-04-23T13:41:04.651Z,157.78
2019-04-23T13:43:38.054Z,156.30
2019-04-23T13:48:23.198Z,157.37
2019-04-23T13:50:59.453Z,156.85
2019-04-23T13:55:54.698Z,155.95
2019-04-23T13:58:34.488Z,156.25
2019-04-23T14:01:14.003Z,157.15
2019-04-23T14:03:41.250Z,158.52
2019-04-23T14:06:22.959Z,156.43
2019-04-23T14:08:50.443Z,156.80
2019-04-23T14:16:11.660Z,159.55
2019-04-23T14:18:51.551Z,160.45
2019-04-23T14:21:15.972Z,155.40
2019-04-23T14:33:52.644Z,158.80
2019-04-23T14:36:15.046Z,157.85
2019-04-23T14:38:44.490Z,158.78
2019-04-23T14:41:21.376Z,156.37
2019-04-23T14:43:48.737Z,159.80
2019-04-23T14:51:22.903Z,159.80
2019-04-23T14:53:46.337Z,157.93
2019-04-23T14:56:20.160Z,155.07
2019-04-23T15:03:50.532Z,156.57
2019-04-23T15:06:27.822Z,155.87
2019-04-23T15:11:34.623Z,157.60
2019-04-23T15:13:51.948Z,158.65
2019-04-23T15:19:12.366Z,156.93
2019-04-23T15:21:51.684Z,156.10
2019-04-23T15:28:37.272Z,156.87
2019-04-23T15:31:26.851Z,155.10
2019-04-23T15:34:00.935Z,160.63
2019-04-23T15:39:07.945Z,156.45
2019-04-23T15:43:57.758Z,156.78
2019-04-23T15:46:25.303Z,154.82
2019-04-23T15:49:01.279Z,154.82
2019-04-23T15:51:28.306Z,158.18
2019-04-23T15:53:51.003Z,154.87
2019-04-23T15:56:35.818Z,155.75
2019-04-23T16:01:29.383Z,155.93
2019-04-23T16:03:29.399Z,158.22
2019-04-23T16:05:57.440Z,157.80
2019-04-23T16:14:10.868Z,156.72
2019-04-23T16:16:31.483Z,153.97
2019-04-23T16:19:07.989Z,155.32
2019-04-23T16:21:48.361Z,155.75
2019-04-23T16:24:05.968Z,153.47
2019-04-23T16:26:40.564Z,157.62
2019-04-23T16:29:25.478Z,155.00
2019-04-23T16:31:41.384Z,157.15
2019-04-23T16:36:59.499Z,157.78
2019-04-23T16:39:48.828Z,155.50
2019-04-23T16:42:08.828Z,159.85
2019-04-23T16:44:38.284Z,158.42
2019-04-23T16:47:04.654Z,157.70
2019-04-23T16:52:01.323Z,156.72
2019-04-23T16:54:50.988Z,154.87
2019-04-23T16:59:24.716Z,154.07
2019-04-23T17:02:12.328Z,153.57
2019-04-23T17:04:32.704Z,153.02
2019-04-23T17:06:57.830Z,151.78
2019-04-23T17:09:26.376Z,152.55
2019-04-23T17:12:04.611Z,154.90
2019-04-23T17:14:23.197Z,153.23
2019-04-23T17:16:56.948Z,154.68
2019-04-23T17:19:33.305Z,153.40
2019-04-23T17:21:59.984Z,153.32
2019-04-23T17:24:40.478Z,155.97
2019-04-23T17:27:03.664Z,154.97
2019-04-23T17:29:28.281Z,153.57
2019-04-23T17:32:05.790Z,152.65
2019-04-23T17:37:21.698Z,152.95
2019-04-23T17:40:19.850Z,152.72
2019-04-23T17:43:06.507Z,152.68
2019-04-23T17:45:42.367Z,152.27
2019-04-23T17:48:15.747Z,153.72
2019-04-23T17:53:22.327Z,153.18
2019-04-23T17:58:37.228Z,153.47
2019-04-23T18:04:02.261Z,155.50
2019-04-23T18:06:37.909Z,152.65
2019-04-23T18:09:07.696Z,156.50
2019-04-23T18:11:29.894Z,153.85
2019-04-23T18:22:04.996Z,153.78
2019-04-23T18:24:42.831Z,154.07
2019-04-23T18:27:40.618Z,152.97
2019-04-23T18:30:15.735Z,155.30
2019-04-23T18:33:44.307Z,155.43
2019-04-23T18:44:15.489Z,154.05
2019-04-23T18:49:09.452Z,153.72
2019-04-23T18:51:40.517Z,153.38
2019-04-23T18:54:05.485Z,155.10
2019-04-23T18:57:03.351Z,154.18
2019-04-23T18:59:31.286Z,153.35
2019-04-23T19:11:11.103Z,150.87
2019-04-23T19:13:39.884Z,151.35
2019-04-23T19:15:59.769Z,150.80
2019-04-23T19:18:40.476Z,152.02
2019-04-23T19:21:20.779Z,151.50
2019-04-23T19:23:47.236Z,153.30
2019-04-23T19:26:02.578Z,152.25
2019-04-23T19:31:25.177Z,153.32
2019-04-23T19:34:22.742Z,151.97
2019-04-23T19:36:49.236Z,150.47
2019-04-23T19:39:11.915Z,151.20
2019-04-23T19:41:52.491Z,150.20
2019-04-23T19:44:08.969Z,151.42
2019-04-23T19:49:09.832Z,151.32
2019-04-23T19:51:42.776Z,152.47
2019-04-23T19:54:22.027Z,152.43
2019-04-23T19:56:44.810Z,149.93
2019-04-23T19:59:15.363Z,150.27
2019-04-23T20:01:41.615Z,152.50
2019-04-23T20:04:04.454Z,151.70
2019-04-23T20:07:12.585Z,151.65
2019-04-23T20:09:30.764Z,150.03
2019-04-23T20:11:52.782Z,149.87
2019-04-23T20:17:04.418Z,149.70
2019-04-23T20:19:37.705Z,148.38
2019-04-23T20:22:00.099Z,149.97
2019-04-23T20:27:09.263Z,150.90
2019-04-23T20:30:15.832Z,149.55
2019-04-23T20:37:42.321Z,149.38
2019-04-23T20:42:44.552Z,151.68
2019-04-23T20:44:59.101Z,151.68
2019-04-23T20:47:24.468Z,150.38
2019-04-23T20:49:56.805Z,149.93
2019-04-23T20:52:20.427Z,150.87
2019-04-23T20:55:02.040Z,150.93
2019-04-23T20:58:02.429Z,151.65
2019-04-23T21:00:30.410Z,152.97
2019-04-23T21:05:22.800Z,151.50
2019-04-23T21:15:37.509Z,149.75
2019-04-23T21:18:06.220Z,149.15
2019-04-23T21:20:49.502Z,150.90
2019-04-23T21:23:12.502Z,149.32
2019-04-23T21:28:18.080Z,147.93
2019-04-23T21:31:18.943Z,148.97
2019-04-23T21:33:43.530Z,147.80
2019-04-23T21:36:38.809Z,148.38
2019-04-23T21:39:23.058Z,149.35
2019-04-23T21:41:56.781Z,148.07
2019-04-23T21:44:18.416Z,150.50
2019-04-23T21:46:55.343Z,148.38
2019-04-23T21:51:49.286Z,149.50
2019-04-23T21:54:17.394Z,148.60
2019-04-23T21:56:48.220Z,148.53
2019-04-23T22:01:54.145Z,148.28
2019-04-23T22:04:39.509Z,148.15
2019-04-23T22:09:22.629Z,148.72
2019-04-23T22:14:17.472Z,147.57
2019-04-23T22:19:27.610Z,149.15
2019-04-23T22:21:50.836Z,148.47
2019-04-23T22:24:12.321Z,152.43
2019-04-23T22:29:18.404Z,148.28
2019-04-23T22:34:22.225Z,149.32
2019-04-23T22:37:01.762Z,148.85
2019-04-23T22:39:17.695Z,148.57
2019-04-23T22:41:59.780Z,148.95
2019-04-23T22:44:20.602Z,148.00
2019-04-23T22:52:06.284Z,150.10
2019-04-23T22:54:35.933Z,152.12
2019-04-23T23:04:51.574Z,147.82
2019-04-23T23:07:07.687Z,148.00
2019-04-23T23:09:54.161Z,148.10
2019-04-23T23:12:14.560Z,146.87
2019-04-23T23:14:47.481Z,146.37
2019-04-23T23:24:43.172Z,147.65
2019-04-23T23:29:42.201Z,145.80
2019-04-23T23:32:11.114Z,147.13
2019-04-23T23:34:58.518Z,146.25
2019-04-23T23:39:35.572Z,146.07
2019-04-23T23:44:43.486Z,147.02
2019-04-23T23:47:07.282Z,146.18
2019-04-23T23:49:38.661Z,146.53
2019-04-23T23:52:19.480Z,146.62
2019-04-23T23:54:25.203Z,147.62
2019-04-23T23:57:13.741Z,146.05
